sensor_id;sensor_type;location;lat;lon;timestamp;pressure;altitude;pressure_sealevel;temperature;humidity
3544;BME280;1786;52.870;9.578;2023-01-08T00:01:12;99560.53;;;19.93;51.25
3544;BME280;1786;52.870;9.578;2023-01-08T00:03:39;99550.13;;;19.14;52.07
3544;BME280;1786;52.870;9.578;2023-01-08T00:06:09;99555.41;;;19.22;52.19
3544;BME280;1786;52.870;9.578;2023-01-08T00:08:36;99559.63;;;19.62;51.88
3544;BME280;1786;52.870;9.578;2023-01-08T00:11:03;99552.47;;;19.55;51.42
3544;BME280;1786;52.870;9.578;2023-01-08T00:13:30;99542.88;;;19.45;51.45
3544;BME280;1786;52.870;9.578;2023-01-08T00:16:01;99540.13;;;19.92;51.20
3544;BME280;1786;52.870;9.578;2023-01-08T00:18:28;99523.34;;;19.14;52.07
3544;BME280;1786;52.870;9.578;2023-01-08T00:20:54;99522.75;;;19.27;52.21
3544;BME280;1786;52.870;9.578;2023-01-08T00:23:21;99530.97;;;19.63;51.75
3544;BME280;1786;52.870;9.578;2023-01-08T00:25:48;99524.53;;;19.11;52.69
3544;BME280;1786;52.870;9.578;2023-01-08T00:28:15;99525.69;;;19.55;52.08
3544;BME280;1786;52.870;9.578;2023-01-08T00:30:42;99529.41;;;19.54;52.11
3544;BME280;1786;52.870;9.578;2023-01-08T00:33:10;99537.50;;;19.69;51.91
3544;BME280;1786;52.870;9.578;2023-01-08T00:35:37;99543.69;;;19.69;51.62
3544;BME280;1786;52.870;9.578;2023-01-08T00:38:05;99530.38;;;19.38;52.27
3544;BME280;1786;52.870;9.578;2023-01-08T00:40:33;99526.94;;;19.67;51.98
3544;BME280;1786;52.870;9.578;2023-01-08T00:43:00;99511.34;;;19.85;51.26
3544;BME280;1786;52.870;9.578;2023-01-08T00:45:27;99509.16;;;19.89;51.48
3544;BME280;1786;52.870;9.578;2023-01-08T00:47:54;99512.78;;;19.58;52.28
3544;BME280;1786;52.870;9.578;2023-01-08T00:50:21;99527.09;;;19.88;51.39
3544;BME280;1786;52.870;9.578;2023-01-08T00:52:48;99532.25;;;20.05;51.34
3544;BME280;1786;52.870;9.578;2023-01-08T00:55:14;99527.63;;;20.28;50.60
3544;BME280;1786;52.870;9.578;2023-01-08T00:57:42;99527.66;;;20.14;51.11
3544;BME280;1786;52.870;9.578;2023-01-08T01:00:12;99515.78;;;19.93;51.53
3544;BME280;1786;52.870;9.578;2023-01-08T01:02:40;99520.50;;;20.21;50.93
3544;BME280;1786;52.870;9.578;2023-01-08T01:05:07;99513.63;;;20.48;50.36
3544;BME280;1786;52.870;9.578;2023-01-08T01:07:35;99511.59;;;20.50;50.29
3544;BME280;1786;52.870;9.578;2023-01-08T01:10:02;99512.66;;;20.19;50.50
3544;BME280;1786;52.870;9.578;2023-01-08T01:12:29;99498.03;;;20.37;50.13
3544;BME280;1786;52.870;9.578;2023-01-08T01:14:55;99502.75;;;20.35;50.52
3544;BME280;1786;52.870;9.578;2023-01-08T01:17:22;99505.06;;;20.08;50.87
3544;BME280;1786;52.870;9.578;2023-01-08T01:19:48;99500.72;;;20.37;50.51
3544;BME280;1786;52.870;9.578;2023-01-08T01:22:15;99499.94;;;20.43;50.59
3544;BME280;1786;52.870;9.578;2023-01-08T01:24:42;99488.41;;;20.27;50.28
3544;BME280;1786;52.870;9.578;2023-01-08T01:27:08;99493.63;;;20.65;49.99
3544;BME280;1786;52.870;9.578;2023-01-08T01:29:35;99488.09;;;20.67;49.92
3544;BME280;1786;52.870;9.578;2023-01-08T01:32:02;99478.00;;;19.50;51.88
3544;BME280;1786;52.870;9.578;2023-01-08T01:34:28;99476.97;;;19.74;51.97
3544;BME280;1786;52.870;9.578;2023-01-08T01:36:55;99475.75;;;20.21;50.77
3544;BME280;1786;52.870;9.578;2023-01-08T01:39:22;99474.44;;;20.32;50.83
3544;BME280;1786;52.870;9.578;2023-01-08T01:41:49;99471.97;;;19.71;51.67
3544;BME280;1786;52.870;9.578;2023-01-08T01:44:41;99468.91;;;20.34;50.62
3544;BME280;1786;52.870;9.578;2023-01-08T01:47:22;99481.13;;;21.15;49.50
3544;BME280;1786;52.870;9.578;2023-01-08T01:50:07;99479.00;;;20.68;49.62
3544;BME280;1786;52.870;9.578;2023-01-08T01:52:38;99480.00;;;20.82;49.38
3544;BME280;1786;52.870;9.578;2023-01-08T01:55:09;99481.59;;;20.61;50.14
3544;BME280;1786;52.870;9.578;2023-01-08T01:57:36;99477.53;;;20.50;50.01
3544;BME280;1786;52.870;9.578;2023-01-08T02:00:07;99490.13;;;20.50;50.08
3544;BME280;1786;52.870;9.578;2023-01-08T02:02:43;99492.00;;;20.86;49.73
3544;BME280;1786;52.870;9.578;2023-01-08T02:05:10;99484.34;;;20.31;50.80
3544;BME280;1786;52.870;9.578;2023-01-08T02:07:55;99478.81;;;20.91;49.45
3544;BME280;1786;52.870;9.578;2023-01-08T02:10:28;99473.81;;;20.15;50.94
3544;BME280;1786;52.870;9.578;2023-01-08T02:13:03;99466.91;;;20.42;50.35
3544;BME280;1786;52.870;9.578;2023-01-08T02:15:47;99467.63;;;20.51;50.43
3544;BME280;1786;52.870;9.578;2023-01-08T02:18:19;99461.25;;;20.67;50.25
3544;BME280;1786;52.870;9.578;2023-01-08T02:20:50;99461.91;;;20.54;50.34
3544;BME280;1786;52.870;9.578;2023-01-08T02:23:36;99454.38;;;19.54;52.24
3544;BME280;1786;52.870;9.578;2023-01-08T02:26:30;99456.38;;;20.41;50.62
3544;BME280;1786;52.870;9.578;2023-01-08T02:29:04;99455.19;;;20.28;50.82
3544;BME280;1786;52.870;9.578;2023-01-08T02:31:33;99447.63;;;20.68;49.92
3544;BME280;1786;52.870;9.578;2023-01-08T02:34:01;99457.53;;;20.53;50.20
3544;BME280;1786;52.870;9.578;2023-01-08T02:36:38;99457.31;;;20.84;49.62
3544;BME280;1786;52.870;9.578;2023-01-08T02:42:12;99465.16;;;21.07;48.99
3544;BME280;1786;52.870;9.578;2023-01-08T02:45:04;99462.00;;;21.04;49.21
3544;BME280;1786;52.870;9.578;2023-01-08T02:47:43;99445.97;;;20.89;49.96
3544;BME280;1786;52.870;9.578;2023-01-08T02:50:21;99451.38;;;20.38;50.55
3544;BME280;1786;52.870;9.578;2023-01-08T02:52:53;99442.88;;;20.49;50.54
3544;BME280;1786;52.870;9.578;2023-01-08T02:55:22;99445.34;;;19.99;51.45
3544;BME280;1786;52.870;9.578;2023-01-08T02:57:50;99443.59;;;20.43;50.51
3544;BME280;1786;52.870;9.578;2023-01-08T03:00:19;99433.69;;;19.92;51.59
3544;BME280;1786;52.870;9.578;2023-01-08T03:02:49;99441.06;;;20.20;51.38
3544;BME280;1786;52.870;9.578;2023-01-08T03:05:23;99444.16;;;19.87;51.51
3544;BME280;1786;52.870;9.578;2023-01-08T03:07:52;99432.75;;;20.51;50.68
3544;BME280;1786;52.870;9.578;2023-01-08T03:10:21;99439.28;;;20.27;51.13
3544;BME280;1786;52.870;9.578;2023-01-08T03:12:53;99433.03;;;20.05;51.37
3544;BME280;1786;52.870;9.578;2023-01-08T03:15:48;99435.81;;;20.48;50.72
3544;BME280;1786;52.870;9.578;2023-01-08T03:18:21;99441.25;;;20.69;50.15
3544;BME280;1786;52.870;9.578;2023-01-08T03:20:49;99444.56;;;20.93;50.08
3544;BME280;1786;52.870;9.578;2023-01-08T03:23:17;99452.47;;;20.43;50.73
3544;BME280;1786;52.870;9.578;2023-01-08T03:25:47;99450.19;;;20.25;51.11
3544;BME280;1786;52.870;9.578;2023-01-08T03:28:19;99461.25;;;20.67;50.58
3544;BME280;1786;52.870;9.578;2023-01-08T03:30:49;99464.25;;;20.57;50.81
3544;BME280;1786;52.870;9.578;2023-01-08T03:33:17;99465.31;;;20.63;50.78
3544;BME280;1786;52.870;9.578;2023-01-08T03:35:46;99463.75;;;20.90;50.22
3544;BME280;1786;52.870;9.578;2023-01-08T03:38:38;99468.47;;;20.88;50.58
3544;BME280;1786;52.870;9.578;2023-01-08T03:41:09;99455.94;;;20.37;51.24
3544;BME280;1786;52.870;9.578;2023-01-08T03:43:36;99453.94;;;19.95;52.14
3544;BME280;1786;52.870;9.578;2023-01-08T03:46:07;99443.97;;;19.74;52.53
3544;BME280;1786;52.870;9.578;2023-01-08T03:48:35;99454.03;;;20.16;52.01
3544;BME280;1786;52.870;9.578;2023-01-08T03:51:07;99446.88;;;20.23;51.46
3544;BME280;1786;52.870;9.578;2023-01-08T03:53:35;99428.16;;;19.94;52.33
3544;BME280;1786;52.870;9.578;2023-01-08T03:56:02;99428.25;;;19.85;52.59
3544;BME280;1786;52.870;9.578;2023-01-08T03:58:29;99432.06;;;19.76;52.92
3544;BME280;1786;52.870;9.578;2023-01-08T04:00:55;99424.63;;;19.93;52.61
3544;BME280;1786;52.870;9.578;2023-01-08T04:03:22;99429.16;;;19.93;52.39
3544;BME280;1786;52.870;9.578;2023-01-08T04:05:50;99432.22;;;19.89;52.83
3544;BME280;1786;52.870;9.578;2023-01-08T04:08:16;99428.91;;;20.39;51.41
3544;BME280;1786;52.870;9.578;2023-01-08T04:10:43;99428.97;;;20.60;51.32
3544;BME280;1786;52.870;9.578;2023-01-08T04:13:09;99428.19;;;20.30;51.87
3544;BME280;1786;52.870;9.578;2023-01-08T04:15:36;99413.56;;;19.81;52.26
3544;BME280;1786;52.870;9.578;2023-01-08T04:18:03;99413.88;;;20.59;51.13
3544;BME280;1786;52.870;9.578;2023-01-08T04:20:30;99411.66;;;20.26;51.60
3544;BME280;1786;52.870;9.578;2023-01-08T04:22:58;99397.78;;;20.08;52.25
3544;BME280;1786;52.870;9.578;2023-01-08T04:25:26;99400.00;;;20.19;51.70
3544;BME280;1786;52.870;9.578;2023-01-08T04:27:53;99407.97;;;19.98;52.09
3544;BME280;1786;52.870;9.578;2023-01-08T04:30:20;99408.81;;;20.92;50.67
3544;BME280;1786;52.870;9.578;2023-01-08T04:32:47;99403.88;;;20.96;50.24
3544;BME280;1786;52.870;9.578;2023-01-08T04:35:14;99405.34;;;21.20;50.23
3544;BME280;1786;52.870;9.578;2023-01-08T04:37:40;99394.16;;;20.52;50.73
3544;BME280;1786;52.870;9.578;2023-01-08T04:40:07;99387.38;;;20.35;51.40
3544;BME280;1786;52.870;9.578;2023-01-08T04:42:35;99392.06;;;20.90;50.62
3544;BME280;1786;52.870;9.578;2023-01-08T04:45:03;99380.00;;;20.80;50.39
3544;BME280;1786;52.870;9.578;2023-01-08T04:47:29;99385.16;;;20.81;50.62
3544;BME280;1786;52.870;9.578;2023-01-08T04:49:56;99386.78;;;20.97;50.45
3544;BME280;1786;52.870;9.578;2023-01-08T04:52:22;99368.06;;;20.82;51.00
3544;BME280;1786;52.870;9.578;2023-01-08T04:54:49;99369.34;;;20.28;51.49
3544;BME280;1786;52.870;9.578;2023-01-08T04:57:16;99365.31;;;19.81;52.36
3544;BME280;1786;52.870;9.578;2023-01-08T04:59:42;99368.28;;;20.08;52.25
3544;BME280;1786;52.870;9.578;2023-01-08T05:02:09;99371.66;;;20.53;51.24
3544;BME280;1786;52.870;9.578;2023-01-08T05:04:36;99365.75;;;19.85;52.26
3544;BME280;1786;52.870;9.578;2023-01-08T05:07:03;99362.72;;;19.58;52.96
3544;BME280;1786;52.870;9.578;2023-01-08T05:09:30;99363.34;;;20.48;51.39
3544;BME280;1786;52.870;9.578;2023-01-08T05:11:56;99368.47;;;20.43;51.43
3544;BME280;1786;52.870;9.578;2023-01-08T05:14:23;99366.19;;;20.61;51.12
3544;BME280;1786;52.870;9.578;2023-01-08T05:16:50;99366.00;;;20.41;51.39
3544;BME280;1786;52.870;9.578;2023-01-08T05:19:17;99352.94;;;20.38;51.42
3544;BME280;1786;52.870;9.578;2023-01-08T05:21:43;99358.31;;;20.38;51.05
3544;BME280;1786;52.870;9.578;2023-01-08T05:24:10;99355.06;;;20.43;51.43
3544;BME280;1786;52.870;9.578;2023-01-08T05:26:37;99354.78;;;20.38;51.57
3544;BME280;1786;52.870;9.578;2023-01-08T05:29:03;99363.78;;;20.66;51.01
3544;BME280;1786;52.870;9.578;2023-01-08T05:31:30;99362.97;;;20.51;51.12
3544;BME280;1786;52.870;9.578;2023-01-08T05:33:57;99354.16;;;20.14;52.10
3544;BME280;1786;52.870;9.578;2023-01-08T05:36:25;99361.50;;;20.48;51.41
3544;BME280;1786;52.870;9.578;2023-01-08T05:38:52;99361.09;;;20.66;51.14
3544;BME280;1786;52.870;9.578;2023-01-08T05:41:19;99361.31;;;20.93;50.85
3544;BME280;1786;52.870;9.578;2023-01-08T05:43:45;99362.97;;;20.29;51.62
3544;BME280;1786;52.870;9.578;2023-01-08T05:46:12;99355.56;;;20.31;51.67
3544;BME280;1786;52.870;9.578;2023-01-08T05:48:39;99357.78;;;20.64;51.28
3544;BME280;1786;52.870;9.578;2023-01-08T05:51:06;99353.16;;;20.58;51.52
3544;BME280;1786;52.870;9.578;2023-01-08T05:53:33;99358.13;;;20.61;50.98
3544;BME280;1786;52.870;9.578;2023-01-08T05:56:02;99362.66;;;20.03;52.25
3544;BME280;1786;52.870;9.578;2023-01-08T05:58:29;99355.78;;;19.64;52.90
3544;BME280;1786;52.870;9.578;2023-01-08T06:01:10;99351.06;;;19.51;53.30
3544;BME280;1786;52.870;9.578;2023-01-08T06:03:38;99347.38;;;19.37;53.64
3544;BME280;1786;52.870;9.578;2023-01-08T06:06:06;99351.78;;;19.60;53.53
3544;BME280;1786;52.870;9.578;2023-01-08T06:08:33;99346.91;;;19.19;54.43
3544;BME280;1786;52.870;9.578;2023-01-08T06:11:02;99348.19;;;19.08;54.42
3544;BME280;1786;52.870;9.578;2023-01-08T06:13:29;99340.34;;;19.07;54.20
3544;BME280;1786;52.870;9.578;2023-01-08T06:15:57;99339.19;;;20.05;52.47
3544;BME280;1786;52.870;9.578;2023-01-08T06:18:26;99351.69;;;20.56;51.56
3544;BME280;1786;52.870;9.578;2023-01-08T06:20:53;99336.78;;;20.31;51.71
3544;BME280;1786;52.870;9.578;2023-01-08T06:23:20;99336.91;;;20.45;51.91
3544;BME280;1786;52.870;9.578;2023-01-08T06:25:51;99337.22;;;20.14;52.24
3544;BME280;1786;52.870;9.578;2023-01-08T06:28:20;99340.16;;;20.19;52.37
3544;BME280;1786;52.870;9.578;2023-01-08T06:31:08;99342.00;;;19.82;53.09
3544;BME280;1786;52.870;9.578;2023-01-08T06:33:34;99339.88;;;19.62;53.39
3544;BME280;1786;52.870;9.578;2023-01-08T06:36:02;99348.94;;;20.49;51.92
3544;BME280;1786;52.870;9.578;2023-01-08T06:38:31;99345.19;;;20.65;51.52
3544;BME280;1786;52.870;9.578;2023-01-08T06:41:02;99334.31;;;20.73;51.33
3544;BME280;1786;52.870;9.578;2023-01-08T06:43:29;99338.88;;;20.15;52.24
3544;BME280;1786;52.870;9.578;2023-01-08T06:45:56;99338.06;;;20.36;51.65
3544;BME280;1786;52.870;9.578;2023-01-08T06:48:24;99334.84;;;20.62;51.56
3544;BME280;1786;52.870;9.578;2023-01-08T06:50:51;99333.94;;;20.18;52.23
3544;BME280;1786;52.870;9.578;2023-01-08T06:53:18;99330.34;;;19.89;52.79
3544;BME280;1786;52.870;9.578;2023-01-08T06:55:46;99334.59;;;20.57;51.23
3544;BME280;1786;52.870;9.578;2023-01-08T06:58:13;99325.16;;;20.24;51.99
3544;BME280;1786;52.870;9.578;2023-01-08T07:00:40;99329.66;;;20.39;51.83
3544;BME280;1786;52.870;9.578;2023-01-08T07:03:08;99331.22;;;20.33;52.01
3544;BME280;1786;52.870;9.578;2023-01-08T07:05:35;99335.59;;;19.98;52.71
3544;BME280;1786;52.870;9.578;2023-01-08T07:08:02;99329.75;;;20.09;52.84
3544;BME280;1786;52.870;9.578;2023-01-08T07:10:33;99326.84;;;19.15;54.29
3544;BME280;1786;52.870;9.578;2023-01-08T07:13:02;99333.97;;;19.82;53.57
3544;BME280;1786;52.870;9.578;2023-01-08T07:15:29;99324.22;;;19.96;53.22
3544;BME280;1786;52.870;9.578;2023-01-08T07:17:56;99327.31;;;19.03;54.98
3544;BME280;1786;52.870;9.578;2023-01-08T07:20:22;99333.13;;;20.18;53.17
3544;BME280;1786;52.870;9.578;2023-01-08T07:22:49;99324.78;;;20.06;53.21
3544;BME280;1786;52.870;9.578;2023-01-08T07:25:16;99324.97;;;19.89;53.79
3544;BME280;1786;52.870;9.578;2023-01-08T07:27:43;99329.91;;;19.86;53.56
3544;BME280;1786;52.870;9.578;2023-01-08T07:30:10;99321.78;;;19.20;55.16
3544;BME280;1786;52.870;9.578;2023-01-08T07:32:58;99323.41;;;18.91;55.83
3544;BME280;1786;52.870;9.578;2023-01-08T07:35:26;99329.44;;;18.93;56.13
3544;BME280;1786;52.870;9.578;2023-01-08T07:37:53;99327.41;;;18.95;56.15
3544;BME280;1786;52.870;9.578;2023-01-08T07:40:19;99323.81;;;19.18;56.21
3544;BME280;1786;52.870;9.578;2023-01-08T07:42:46;99317.59;;;19.92;54.99
3544;BME280;1786;52.870;9.578;2023-01-08T07:45:13;99317.44;;;19.49;55.56
3544;BME280;1786;52.870;9.578;2023-01-08T07:47:40;99316.91;;;19.53;55.59
3544;BME280;1786;52.870;9.578;2023-01-08T07:50:07;99330.66;;;19.35;56.40
3544;BME280;1786;52.870;9.578;2023-01-08T07:52:34;99333.53;;;19.78;55.32
3544;BME280;1786;52.870;9.578;2023-01-08T07:55:00;99324.56;;;19.27;56.46
3544;BME280;1786;52.870;9.578;2023-01-08T07:57:28;99322.81;;;19.78;55.60
3544;BME280;1786;52.870;9.578;2023-01-08T07:59:55;99327.41;;;19.70;55.66
3544;BME280;1786;52.870;9.578;2023-01-08T08:02:22;99324.09;;;19.23;57.07
3544;BME280;1786;52.870;9.578;2023-01-08T08:04:49;99322.31;;;19.75;56.07
3544;BME280;1786;52.870;9.578;2023-01-08T08:07:15;99320.84;;;19.42;56.94
3544;BME280;1786;52.870;9.578;2023-01-08T08:09:42;99320.66;;;19.14;57.76
3544;BME280;1786;52.870;9.578;2023-01-08T08:12:09;99313.03;;;18.73;58.94
3544;BME280;1786;52.870;9.578;2023-01-08T08:14:36;99316.31;;;18.60;58.54
3544;BME280;1786;52.870;9.578;2023-01-08T08:17:02;99304.03;;;19.04;58.30
3544;BME280;1786;52.870;9.578;2023-01-08T08:19:29;99312.19;;;18.73;59.08
3544;BME280;1786;52.870;9.578;2023-01-08T08:21:56;99312.09;;;19.19;57.46
3544;BME280;1786;52.870;9.578;2023-01-08T08:24:23;99313.19;;;19.39;57.57
3544;BME280;1786;52.870;9.578;2023-01-08T08:26:50;99314.75;;;19.19;57.89
3544;BME280;1786;52.870;9.578;2023-01-08T08:29:19;99314.94;;;19.62;56.76
3544;BME280;1786;52.870;9.578;2023-01-08T08:31:46;99302.84;;;19.36;57.44
3544;BME280;1786;52.870;9.578;2023-01-08T08:34:12;99302.84;;;19.07;58.07
3544;BME280;1786;52.870;9.578;2023-01-08T08:36:39;99312.63;;;19.59;57.29
3544;BME280;1786;52.870;9.578;2023-01-08T08:39:05;99309.00;;;18.92;58.94
3544;BME280;1786;52.870;9.578;2023-01-08T08:41:32;99310.97;;;18.60;59.42
3544;BME280;1786;52.870;9.578;2023-01-08T08:43:59;99306.06;;;18.64;59.72
3544;BME280;1786;52.870;9.578;2023-01-08T08:46:25;99305.50;;;18.92;58.67
3544;BME280;1786;52.870;9.578;2023-01-08T08:48:52;99305.25;;;19.01;58.67
3544;BME280;1786;52.870;9.578;2023-01-08T08:51:18;99311.16;;;19.41;57.91
3544;BME280;1786;52.870;9.578;2023-01-08T08:53:48;99305.63;;;19.13;58.43
3544;BME280;1786;52.870;9.578;2023-01-08T08:56:14;99309.13;;;19.43;57.55
3544;BME280;1786;52.870;9.578;2023-01-08T08:58:41;99300.72;;;18.64;59.58
3544;BME280;1786;52.870;9.578;2023-01-08T09:01:08;99290.13;;;18.71;59.31
3544;BME280;1786;52.870;9.578;2023-01-08T09:03:34;99287.00;;;18.67;59.20
3544;BME280;1786;52.870;9.578;2023-01-08T09:06:01;99290.94;;;19.09;59.02
3544;BME280;1786;52.870;9.578;2023-01-08T09:08:28;99282.81;;;19.17;58.62
3544;BME280;1786;52.870;9.578;2023-01-08T09:10:56;99293.22;;;18.97;58.53
3544;BME280;1786;52.870;9.578;2023-01-08T09:13:23;99293.44;;;19.26;58.32
3544;BME280;1786;52.870;9.578;2023-01-08T09:15:50;99289.50;;;18.46;60.15
3544;BME280;1786;52.870;9.578;2023-01-08T09:18:17;99281.53;;;18.98;58.77
3544;BME280;1786;52.870;9.578;2023-01-08T09:20:44;99282.72;;;19.40;57.86
3544;BME280;1786;52.870;9.578;2023-01-08T09:23:10;99294.72;;;19.96;56.63
3544;BME280;1786;52.870;9.578;2023-01-08T09:25:38;99295.63;;;19.81;56.49
3544;BME280;1786;52.870;9.578;2023-01-08T09:28:06;99291.94;;;19.67;57.03
3544;BME280;1786;52.870;9.578;2023-01-08T09:30:34;99289.69;;;19.86;56.52
3544;BME280;1786;52.870;9.578;2023-01-08T09:33:02;99293.84;;;20.10;56.65
3544;BME280;1786;52.870;9.578;2023-01-08T09:35:32;99295.94;;;19.93;56.62
3544;BME280;1786;52.870;9.578;2023-01-08T09:37:59;99293.78;;;20.25;55.92
3544;BME280;1786;52.870;9.578;2023-01-08T09:40:41;99299.50;;;20.37;55.47
3544;BME280;1786;52.870;9.578;2023-01-08T09:43:16;99294.84;;;21.36;54.21
3544;BME280;1786;52.870;9.578;2023-01-08T09:45:50;99309.16;;;21.85;52.32
3544;BME280;1786;52.870;9.578;2023-01-08T09:48:22;99303.25;;;21.55;53.17
3544;BME280;1786;52.870;9.578;2023-01-08T09:50:50;99301.72;;;21.94;52.41
3544;BME280;1786;52.870;9.578;2023-01-08T09:53:17;99300.28;;;21.43;52.71
3544;BME280;1786;52.870;9.578;2023-01-08T09:55:50;99300.69;;;21.40;53.15
3544;BME280;1786;52.870;9.578;2023-01-08T09:58:40;99299.56;;;20.93;53.13
3544;BME280;1786;52.870;9.578;2023-01-08T10:01:13;99288.44;;;21.79;52.57
3544;BME280;1786;52.870;9.578;2023-01-08T10:03:46;99301.31;;;21.07;53.71
3544;BME280;1786;52.870;9.578;2023-01-08T10:06:15;99283.38;;;20.86;54.15
3544;BME280;1786;52.870;9.578;2023-01-08T10:08:42;99281.50;;;20.80;54.22
3544;BME280;1786;52.870;9.578;2023-01-08T10:11:13;99289.97;;;20.84;53.49
3544;BME280;1786;52.870;9.578;2023-01-08T10:13:45;99280.34;;;21.31;53.05
3544;BME280;1786;52.870;9.578;2023-01-08T10:16:20;99276.91;;;21.85;52.16
3544;BME280;1786;52.870;9.578;2023-01-08T10:18:49;99276.44;;;21.75;52.89
3544;BME280;1786;52.870;9.578;2023-01-08T10:21:16;99276.47;;;21.88;52.16
3544;BME280;1786;52.870;9.578;2023-01-08T10:23:52;99271.47;;;21.30;53.09
3544;BME280;1786;52.870;9.578;2023-01-08T10:26:33;99274.50;;;21.55;53.08
3544;BME280;1786;52.870;9.578;2023-01-08T10:29:11;99272.50;;;21.71;52.84
3544;BME280;1786;52.870;9.578;2023-01-08T10:31:47;99275.22;;;21.77;52.47
3544;BME280;1786;52.870;9.578;2023-01-08T10:34:40;99277.28;;;21.82;51.78
3544;BME280;1786;52.870;9.578;2023-01-08T10:37:28;99278.53;;;21.38;52.37
3544;BME280;1786;52.870;9.578;2023-01-08T10:43:06;99272.59;;;21.97;51.52
3544;BME280;1786;52.870;9.578;2023-01-08T10:45:34;99264.09;;;22.00;51.71
3544;BME280;1786;52.870;9.578;2023-01-08T10:48:04;99250.03;;;21.98;51.26
3544;BME280;1786;52.870;9.578;2023-01-08T10:50:33;99232.59;;;21.68;51.57
3544;BME280;1786;52.870;9.578;2023-01-08T10:53:05;99240.94;;;22.13;51.14
3544;BME280;1786;52.870;9.578;2023-01-08T10:55:56;99238.06;;;22.47;50.27
3544;BME280;1786;52.870;9.578;2023-01-08T10:58:23;99245.91;;;22.09;50.65
3544;BME280;1786;52.870;9.578;2023-01-08T11:00:50;99253.97;;;22.02;51.03
3544;BME280;1786;52.870;9.578;2023-01-08T11:03:29;99248.78;;;21.88;50.97
3544;BME280;1786;52.870;9.578;2023-01-08T11:05:56;99244.84;;;21.90;51.78
3544;BME280;1786;52.870;9.578;2023-01-08T11:08:23;99237.69;;;22.51;50.65
3544;BME280;1786;52.870;9.578;2023-01-08T11:10:55;99246.47;;;21.85;51.32
3544;BME280;1786;52.870;9.578;2023-01-08T11:13:22;99236.63;;;21.44;51.88
3544;BME280;1786;52.870;9.578;2023-01-08T11:16:03;99235.19;;;21.54;51.37
3544;BME280;1786;52.870;9.578;2023-01-08T11:18:47;99227.63;;;21.78;50.98
3544;BME280;1786;52.870;9.578;2023-01-08T11:21:22;99237.69;;;22.51;49.76
3544;BME280;1786;52.870;9.578;2023-01-08T11:24:17;99245.50;;;22.19;49.64
3544;BME280;1786;52.870;9.578;2023-01-08T11:27:15;99237.63;;;22.97;48.17
3544;BME280;1786;52.870;9.578;2023-01-08T11:32:52;99245.59;;;21.23;49.01
3544;BME280;1786;52.870;9.578;2023-01-08T11:35:25;99226.91;;;21.49;48.58
3544;BME280;1786;52.870;9.578;2023-01-08T11:37:57;99237.47;;;20.53;49.65
3544;BME280;1786;52.870;9.578;2023-01-08T11:40:31;99234.97;;;20.23;49.73
3544;BME280;1786;52.870;9.578;2023-01-08T11:48:23;99227.63;;;20.32;49.25
3544;BME280;1786;52.870;9.578;2023-01-08T11:51:16;99211.03;;;20.50;48.97
3544;BME280;1786;52.870;9.578;2023-01-08T11:56:30;99223.16;;;19.60;49.69
3544;BME280;1786;52.870;9.578;2023-01-08T11:59:10;99202.94;;;20.43;48.25
3544;BME280;1786;52.870;9.578;2023-01-08T12:07:15;99188.53;;;20.51;48.68
3544;BME280;1786;52.870;9.578;2023-01-08T12:10:03;99199.66;;;20.48;48.19
3544;BME280;1786;52.870;9.578;2023-01-08T12:21:19;99202.09;;;20.99;48.02
3544;BME280;1786;52.870;9.578;2023-01-08T12:24:04;99190.41;;;20.50;48.39
3544;BME280;1786;52.870;9.578;2023-01-08T12:26:59;99186.81;;;21.06;47.41
3544;BME280;1786;52.870;9.578;2023-01-08T12:34:53;99181.19;;;20.03;49.40
3544;BME280;1786;52.870;9.578;2023-01-08T12:37:56;99170.75;;;20.15;48.71
3544;BME280;1786;52.870;9.578;2023-01-08T12:40:32;99164.84;;;20.26;49.41
3544;BME280;1786;52.870;9.578;2023-01-08T12:43:05;99160.97;;;20.92;48.15
3544;BME280;1786;52.870;9.578;2023-01-08T12:45:37;99161.09;;;20.84;47.63
3544;BME280;1786;52.870;9.578;2023-01-08T12:48:09;99155.13;;;21.30;47.26
3544;BME280;1786;52.870;9.578;2023-01-08T12:53:39;99147.59;;;22.07;45.96
3544;BME280;1786;52.870;9.578;2023-01-08T12:56:53;99145.72;;;21.87;46.50
3544;BME280;1786;52.870;9.578;2023-01-08T12:59:29;99144.47;;;22.50;45.59
3544;BME280;1786;52.870;9.578;2023-01-08T13:04:47;99146.13;;;21.57;46.55
3544;BME280;1786;52.870;9.578;2023-01-08T13:07:21;99143.81;;;21.48;46.71
3544;BME280;1786;52.870;9.578;2023-01-08T13:12:34;99136.00;;;21.86;46.04
3544;BME280;1786;52.870;9.578;2023-01-08T13:15:01;99142.63;;;22.17;45.79
3544;BME280;1786;52.870;9.578;2023-01-08T13:17:29;99131.69;;;22.38;45.32
3544;BME280;1786;52.870;9.578;2023-01-08T13:20:01;99139.78;;;22.97;44.42
3544;BME280;1786;52.870;9.578;2023-01-08T13:22:31;99127.72;;;23.13;44.22
3544;BME280;1786;52.870;9.578;2023-01-08T13:27:43;99126.09;;;23.11;44.30
3544;BME280;1786;52.870;9.578;2023-01-08T13:30:36;99128.19;;;23.03;44.84
3544;BME280;1786;52.870;9.578;2023-01-08T13:33:35;99115.75;;;23.02;45.20
3544;BME280;1786;52.870;9.578;2023-01-08T13:38:41;99116.69;;;22.69;44.24
3544;BME280;1786;52.870;9.578;2023-01-08T13:41:30;99112.25;;;22.88;44.48
3544;BME280;1786;52.870;9.578;2023-01-08T13:44:05;99101.66;;;22.08;45.93
3544;BME280;1786;52.870;9.578;2023-01-08T13:46:41;99098.97;;;21.61;46.10
3544;BME280;1786;52.870;9.578;2023-01-08T13:49:22;99096.88;;;22.43;45.38
3544;BME280;1786;52.870;9.578;2023-01-08T13:51:51;99088.63;;;21.72;45.71
3544;BME280;1786;52.870;9.578;2023-01-08T13:54:31;99086.50;;;22.47;44.93
3544;BME280;1786;52.870;9.578;2023-01-08T13:57:10;99081.56;;;22.37;44.42
3544;BME280;1786;52.870;9.578;2023-01-08T13:59:40;99070.72;;;22.64;44.29
3544;BME280;1786;52.870;9.578;2023-01-08T14:02:32;99087.50;;;22.66;44.01
3544;BME280;1786;52.870;9.578;2023-01-08T14:05:00;99079.53;;;22.84;44.02
3544;BME280;1786;52.870;9.578;2023-01-08T14:07:28;99086.81;;;22.77;44.07
3544;BME280;1786;52.870;9.578;2023-01-08T14:10:06;99084.31;;;22.82;43.39
3544;BME280;1786;52.870;9.578;2023-01-08T14:12:33;99080.75;;;22.37;44.72
3544;BME280;1786;52.870;9.578;2023-01-08T14:15:00;99078.47;;;22.14;44.52
3544;BME280;1786;52.870;9.578;2023-01-08T14:17:31;99079.63;;;22.64;43.69
3544;BME280;1786;52.870;9.578;2023-01-08T14:19:58;99080.94;;;22.42;43.98
3544;BME280;1786;52.870;9.578;2023-01-08T14:22:31;99089.50;;;22.77;43.62
3544;BME280;1786;52.870;9.578;2023-01-08T14:25:04;99079.09;;;22.29;44.40
3544;BME280;1786;52.870;9.578;2023-01-08T14:27:33;99079.34;;;21.88;44.81
3544;BME280;1786;52.870;9.578;2023-01-08T14:30:00;99069.41;;;21.88;44.68
3544;BME280;1786;52.870;9.578;2023-01-08T14:32:29;99081.78;;;22.22;44.64